sensor_id;sensor_type;location;lat;lon;timestamp;temperature;humidity
30206;DHT22;17010;51.306;3.150;2023-05-17T00:00:19;10.60;99.90
30206;DHT22;17010;51.306;3.150;2023-05-17T00:02:46;10.50;99.90
30206;DHT22;17010;51.306;3.150;2023-05-17T00:05:13;10.50;99.90
30206;DHT22;17010;51.306;3.150;2023-05-17T00:07:41;10.50;99.90
30206;DHT22;17010;51.306;3.150;2023-05-17T00:10:11;10.50;99.90
30206;DHT22;17010;51.306;3.150;2023-05-17T00:12:39;10.60;99.90
30206;DHT22;17010;51.306;3.150;2023-05-17T00:15:08;10.50;99.90
30206;DHT22;17010;51.306;3.150;2023-05-17T00:17:36;10.60;99.90
30206;DHT22;17010;51.306;3.150;2023-05-17T00:20:04;10.60;99.90
30206;DHT22;17010;51.306;3.150;2023-05-17T00:22:32;10.60;99.90
30206;DHT22;17010;51.306;3.150;2023-05-17T00:25:00;10.60;99.90
30206;DHT22;17010;51.306;3.150;2023-05-17T00:27:48;10.60;99.90
30206;DHT22;17010;51.306;3.150;2023-05-17T00:30:15;10.70;99.90
30206;DHT22;17010;51.306;3.150;2023-05-17T00:32:42;10.70;99.90
30206;DHT22;17010;51.306;3.150;2023-05-17T00:35:10;10.60;99.90
30206;DHT22;17010;51.306;3.150;2023-05-17T00:37:36;10.60;99.90
30206;DHT22;17010;51.306;3.150;2023-05-17T00:40:04;10.60;99.90
30206;DHT22;17010;51.306;3.150;2023-05-17T00:42:31;10.50;99.90
30206;DHT22;17010;51.306;3.150;2023-05-17T00:45:01;10.50;99.90
30206;DHT22;17010;51.306;3.150;2023-05-17T00:47:28;10.40;99.90
30206;DHT22;17010;51.306;3.150;2023-05-17T00:49:57;10.30;99.90
30206;DHT22;17010;51.306;3.150;2023-05-17T00:52:25;10.30;99.90
30206;DHT22;17010;51.306;3.150;2023-05-17T00:54:51;10.20;99.90
30206;DHT22;17010;51.306;3.150;2023-05-17T00:57:20;10.20;99.90
30206;DHT22;17010;51.306;3.150;2023-05-17T00:59:48;10.10;99.90
30206;DHT22;17010;51.306;3.150;2023-05-17T01:02:18;10.10;99.90
30206;DHT22;17010;51.306;3.150;2023-05-17T01:04:46;10.00;99.90
30206;DHT22;17010;51.306;3.150;2023-05-17T01:07:13;10.00;99.90
30206;DHT22;17010;51.306;3.150;2023-05-17T01:09:40;10.00;99.90
30206;DHT22;17010;51.306;3.150;2023-05-17T01:12:45;10.00;99.90
30206;DHT22;17010;51.306;3.150;2023-05-17T01:15:22;10.10;99.90
30206;DHT22;17010;51.306;3.150;2023-05-17T01:20:45;10.10;99.90
30206;DHT22;17010;51.306;3.150;2023-05-17T01:26:18;10.00;99.90
30206;DHT22;17010;51.306;3.150;2023-05-17T01:28:48;10.00;99.90
30206;DHT22;17010;51.306;3.150;2023-05-17T01:31:18;10.00;99.90
30206;DHT22;17010;51.306;3.150;2023-05-17T01:33:45;10.00;99.90
30206;DHT22;17010;51.306;3.150;2023-05-17T01:36:14;9.90;99.90
30206;DHT22;17010;51.306;3.150;2023-05-17T01:38:46;9.90;99.90
30206;DHT22;17010;51.306;3.150;2023-05-17T01:41:56;9.90;99.90
30206;DHT22;17010;51.306;3.150;2023-05-17T01:49:49;9.90;99.90
30206;DHT22;17010;51.306;3.150;2023-05-17T01:52:18;9.90;99.90
30206;DHT22;17010;51.306;3.150;2023-05-17T01:55:03;10.00;99.90
30206;DHT22;17010;51.306;3.150;2023-05-17T01:57:34;10.00;99.90
30206;DHT22;17010;51.306;3.150;2023-05-17T02:00:06;10.00;99.90
30206;DHT22;17010;51.306;3.150;2023-05-17T02:02:35;10.10;99.90
30206;DHT22;17010;51.306;3.150;2023-05-17T02:05:02;10.10;99.90
30206;DHT22;17010;51.306;3.150;2023-05-17T02:07:31;10.10;99.90
30206;DHT22;17010;51.306;3.150;2023-05-17T02:09:58;10.10;99.90
30206;DHT22;17010;51.306;3.150;2023-05-17T02:12:26;10.20;99.90
30206;DHT22;17010;51.306;3.150;2023-05-17T02:14:54;10.20;99.90
30206;DHT22;17010;51.306;3.150;2023-05-17T02:17:22;10.20;99.90
30206;DHT22;17010;51.306;3.150;2023-05-17T02:19:51;10.30;99.90
30206;DHT22;17010;51.306;3.150;2023-05-17T02:22:20;10.30;99.90
30206;DHT22;17010;51.306;3.150;2023-05-17T02:24:46;10.50;99.90
30206;DHT22;17010;51.306;3.150;2023-05-17T02:27:15;10.50;99.90
30206;DHT22;17010;51.306;3.150;2023-05-17T02:29:42;10.50;99.90
30206;DHT22;17010;51.306;3.150;2023-05-17T02:32:11;10.60;99.90
30206;DHT22;17010;51.306;3.150;2023-05-17T02:34:37;10.60;99.90
30206;DHT22;17010;51.306;3.150;2023-05-17T02:37:04;10.60;99.90
30206;DHT22;17010;51.306;3.150;2023-05-17T02:39:32;10.60;99.90
30206;DHT22;17010;51.306;3.150;2023-05-17T02:41:58;10.60;99.90
30206;DHT22;17010;51.306;3.150;2023-05-17T02:44:26;10.70;99.90
30206;DHT22;17010;51.306;3.150;2023-05-17T02:46:53;10.70;99.90
30206;DHT22;17010;51.306;3.150;2023-05-17T02:49:20;10.80;99.90
30206;DHT22;17010;51.306;3.150;2023-05-17T02:51:49;10.80;99.90
30206;DHT22;17010;51.306;3.150;2023-05-17T02:54:16;10.90;99.90
30206;DHT22;17010;51.306;3.150;2023-05-17T02:56:44;10.90;99.90
30206;DHT22;17010;51.306;3.150;2023-05-17T02:59:13;10.90;99.90
30206;DHT22;17010;51.306;3.150;2023-05-17T03:01:40;10.90;99.90
30206;DHT22;17010;51.306;3.150;2023-05-17T03:04:07;10.90;99.90
30206;DHT22;17010;51.306;3.150;2023-05-17T03:06:36;10.90;99.90
30206;DHT22;17010;51.306;3.150;2023-05-17T03:09:04;10.90;99.90
30206;DHT22;17010;51.306;3.150;2023-05-17T03:11:34;10.90;99.90
30206;DHT22;17010;51.306;3.150;2023-05-17T03:14:00;10.90;99.90
30206;DHT22;17010;51.306;3.150;2023-05-17T03:16:28;10.90;99.90
30206;DHT22;17010;51.306;3.150;2023-05-17T03:18:56;10.90;99.90
30206;DHT22;17010;51.306;3.150;2023-05-17T03:21:22;10.90;99.90
30206;DHT22;17010;51.306;3.150;2023-05-17T03:23:49;10.80;99.90
30206;DHT22;17010;51.306;3.150;2023-05-17T03:26:19;10.80;99.90
30206;DHT22;17010;51.306;3.150;2023-05-17T03:28:46;10.80;99.90
30206;DHT22;17010;51.306;3.150;2023-05-17T03:31:15;10.90;99.90
30206;DHT22;17010;51.306;3.150;2023-05-17T03:33:44;10.80;99.90
30206;DHT22;17010;51.306;3.150;2023-05-17T03:36:11;10.80;99.90
30206;DHT22;17010;51.306;3.150;2023-05-17T03:38:38;10.90;99.90
30206;DHT22;17010;51.306;3.150;2023-05-17T03:41:05;10.90;99.90
30206;DHT22;17010;51.306;3.150;2023-05-17T03:43:32;10.90;99.90
30206;DHT22;17010;51.306;3.150;2023-05-17T03:45:59;10.70;99.90
30206;DHT22;17010;51.306;3.150;2023-05-17T03:48:26;10.80;99.90
30206;DHT22;17010;51.306;3.150;2023-05-17T03:50:52;10.80;99.90
30206;DHT22;17010;51.306;3.150;2023-05-17T03:53:20;10.80;99.90
30206;DHT22;17010;51.306;3.150;2023-05-17T03:55:48;10.70;99.90
30206;DHT22;17010;51.306;3.150;2023-05-17T03:58:16;10.80;99.90
30206;DHT22;17010;51.306;3.150;2023-05-17T04:00:43;10.80;99.90
30206;DHT22;17010;51.306;3.150;2023-05-17T04:03:13;10.80;99.90
30206;DHT22;17010;51.306;3.150;2023-05-17T04:05:40;10.90;99.90
30206;DHT22;17010;51.306;3.150;2023-05-17T04:08:08;10.90;99.90
30206;DHT22;17010;51.306;3.150;2023-05-17T04:10:35;10.90;99.90
30206;DHT22;17010;51.306;3.150;2023-05-17T04:13:02;10.90;99.90
30206;DHT22;17010;51.306;3.150;2023-05-17T04:15:29;11.00;99.90
30206;DHT22;17010;51.306;3.150;2023-05-17T04:17:58;11.10;99.90
30206;DHT22;17010;51.306;3.150;2023-05-17T04:20:24;11.10;99.90
30206;DHT22;17010;51.306;3.150;2023-05-17T04:22:51;11.10;99.90
30206;DHT22;17010;51.306;3.150;2023-05-17T04:25:18;11.20;99.90
30206;DHT22;17010;51.306;3.150;2023-05-17T04:27:45;11.10;99.90
30206;DHT22;17010;51.306;3.150;2023-05-17T04:30:12;11.20;99.90
30206;DHT22;17010;51.306;3.150;2023-05-17T04:32:40;11.20;99.90
30206;DHT22;17010;51.306;3.150;2023-05-17T04:35:08;11.30;99.90
30206;DHT22;17010;51.306;3.150;2023-05-17T04:37:35;11.30;99.90
30206;DHT22;17010;51.306;3.150;2023-05-17T04:40:06;11.30;99.90
30206;DHT22;17010;51.306;3.150;2023-05-17T04:42:33;11.30;99.90
30206;DHT22;17010;51.306;3.150;2023-05-17T04:45:04;11.40;99.90
30206;DHT22;17010;51.306;3.150;2023-05-17T04:47:31;11.40;99.90
30206;DHT22;17010;51.306;3.150;2023-05-17T04:50:02;11.50;99.90
30206;DHT22;17010;51.306;3.150;2023-05-17T04:52:29;11.50;99.90
30206;DHT22;17010;51.306;3.150;2023-05-17T04:54:56;11.60;99.90
30206;DHT22;17010;51.306;3.150;2023-05-17T04:57:26;11.50;99.90
30206;DHT22;17010;51.306;3.150;2023-05-17T04:59:53;11.60;99.90
30206;DHT22;17010;51.306;3.150;2023-05-17T05:02:21;11.70;99.90
30206;DHT22;17010;51.306;3.150;2023-05-17T05:04:48;11.80;99.90
30206;DHT22;17010;51.306;3.150;2023-05-17T05:07:20;11.80;99.90
30206;DHT22;17010;51.306;3.150;2023-05-17T05:09:47;11.90;99.90
30206;DHT22;17010;51.306;3.150;2023-05-17T05:12:13;11.90;99.90
30206;DHT22;17010;51.306;3.150;2023-05-17T05:14:40;12.00;99.90
30206;DHT22;17010;51.306;3.150;2023-05-17T05:17:06;12.10;99.90
30206;DHT22;17010;51.306;3.150;2023-05-17T05:19:34;12.20;99.90
30206;DHT22;17010;51.306;3.150;2023-05-17T05:24:36;12.20;99.90
30206;DHT22;17010;51.306;3.150;2023-05-17T05:27:03;12.30;99.90
30206;DHT22;17010;51.306;3.150;2023-05-17T05:29:30;12.40;99.90
30206;DHT22;17010;51.306;3.150;2023-05-17T05:31:57;12.40;99.90
30206;DHT22;17010;51.306;3.150;2023-05-17T05:34:27;12.40;99.90
30206;DHT22;17010;51.306;3.150;2023-05-17T05:36:54;12.40;99.90
30206;DHT22;17010;51.306;3.150;2023-05-17T05:39:21;12.40;99.90
30206;DHT22;17010;51.306;3.150;2023-05-17T05:41:49;12.40;99.90
30206;DHT22;17010;51.306;3.150;2023-05-17T05:44:19;12.40;99.90
30206;DHT22;17010;51.306;3.150;2023-05-17T05:46:48;12.30;99.90
30206;DHT22;17010;51.306;3.150;2023-05-17T05:49:15;12.40;99.90
30206;DHT22;17010;51.306;3.150;2023-05-17T05:51:42;12.30;99.90
30206;DHT22;17010;51.306;3.150;2023-05-17T05:54:11;12.30;99.90
30206;DHT22;17010;51.306;3.150;2023-05-17T05:56:39;12.20;99.90
30206;DHT22;17010;51.306;3.150;2023-05-17T05:59:06;12.30;99.90
30206;DHT22;17010;51.306;3.150;2023-05-17T06:01:36;12.30;99.90
30206;DHT22;17010;51.306;3.150;2023-05-17T06:04:02;12.40;99.90
30206;DHT22;17010;51.306;3.150;2023-05-17T06:06:33;12.40;99.90
30206;DHT22;17010;51.306;3.150;2023-05-17T06:09:05;12.60;99.90
30206;DHT22;17010;51.306;3.150;2023-05-17T06:11:33;12.80;99.90
30206;DHT22;17010;51.306;3.150;2023-05-17T06:14:01;12.90;99.90
30206;DHT22;17010;51.306;3.150;2023-05-17T06:16:29;12.90;99.90
30206;DHT22;17010;51.306;3.150;2023-05-17T06:18:57;12.70;99.90
30206;DHT22;17010;51.306;3.150;2023-05-17T06:21:23;12.70;99.90
30206;DHT22;17010;51.306;3.150;2023-05-17T06:23:52;12.70;99.90
30206;DHT22;17010;51.306;3.150;2023-05-17T06:26:18;12.80;99.90
30206;DHT22;17010;51.306;3.150;2023-05-17T06:28:48;12.80;99.90
30206;DHT22;17010;51.306;3.150;2023-05-17T06:31:24;13.00;99.90
30206;DHT22;17010;51.306;3.150;2023-05-17T06:33:58;13.30;99.90
30206;DHT22;17010;51.306;3.150;2023-05-17T06:36:25;13.60;99.90
30206;DHT22;17010;51.306;3.150;2023-05-17T06:38:56;13.70;99.90
30206;DHT22;17010;51.306;3.150;2023-05-17T06:41:26;13.90;99.90
30206;DHT22;17010;51.306;3.150;2023-05-17T06:44:05;14.00;99.90
30206;DHT22;17010;51.306;3.150;2023-05-17T06:46:34;14.00;99.90
30206;DHT22;17010;51.306;3.150;2023-05-17T06:49:12;13.90;99.90
30206;DHT22;17010;51.306;3.150;2023-05-17T06:51:53;13.80;99.90
30206;DHT22;17010;51.306;3.150;2023-05-17T06:54:22;13.80;99.90
30206;DHT22;17010;51.306;3.150;2023-05-17T06:56:51;13.90;99.90
30206;DHT22;17010;51.306;3.150;2023-05-17T06:59:23;14.00;99.90
30206;DHT22;17010;51.306;3.150;2023-05-17T07:01:53;14.10;99.90
30206;DHT22;17010;51.306;3.150;2023-05-17T07:04:29;14.10;99.90
30206;DHT22;17010;51.306;3.150;2023-05-17T07:06:59;14.20;99.90
30206;DHT22;17010;51.306;3.150;2023-05-17T07:09:29;14.50;99.90
30206;DHT22;17010;51.306;3.150;2023-05-17T07:11:55;14.90;99.90
30206;DHT22;17010;51.306;3.150;2023-05-17T07:14:21;15.10;99.90
30206;DHT22;17010;51.306;3.150;2023-05-17T07:16:49;15.20;99.90
30206;DHT22;17010;51.306;3.150;2023-05-17T07:24:29;15.70;99.90
30206;DHT22;17010;51.306;3.150;2023-05-17T07:54:04;16.50;99.90
30206;DHT22;17010;51.306;3.150;2023-05-17T08:12:43;18.10;99.90
30206;DHT22;17010;51.306;3.150;2023-05-17T08:18:31;18.00;99.90
30206;DHT22;17010;51.306;3.150;2023-05-17T08:21:21;18.00;99.90
30206;DHT22;17010;51.306;3.150;2023-05-17T08:23:51;17.90;99.90
30206;DHT22;17010;51.306;3.150;2023-05-17T08:26:36;18.10;99.90
30206;DHT22;17010;51.306;3.150;2023-05-17T08:34:19;18.20;99.90
30206;DHT22;17010;51.306;3.150;2023-05-17T08:42:31;16.70;99.90
30206;DHT22;17010;51.306;3.150;2023-05-17T08:45:01;16.30;99.90
30206;DHT22;17010;51.306;3.150;2023-05-17T08:47:28;15.90;99.90
30206;DHT22;17010;51.306;3.150;2023-05-17T08:49:58;16.00;99.90
30206;DHT22;17010;51.306;3.150;2023-05-17T08:52:31;16.30;99.90
30206;DHT22;17010;51.306;3.150;2023-05-17T08:54:57;16.40;99.90
30206;DHT22;17010;51.306;3.150;2023-05-17T08:57:27;16.70;99.90
30206;DHT22;17010;51.306;3.150;2023-05-17T08:59:57;17.00;99.90
30206;DHT22;17010;51.306;3.150;2023-05-17T09:02:27;16.90;99.90
30206;DHT22;17010;51.306;3.150;2023-05-17T09:04:56;16.60;99.90
30206;DHT22;17010;51.306;3.150;2023-05-17T09:07:23;16.50;99.90
30206;DHT22;17010;51.306;3.150;2023-05-17T09:09:53;16.60;99.90
30206;DHT22;17010;51.306;3.150;2023-05-17T09:12:21;16.80;99.90
30206;DHT22;17010;51.306;3.150;2023-05-17T09:14:48;17.00;99.90
30206;DHT22;17010;51.306;3.150;2023-05-17T09:17:20;17.30;99.90
30206;DHT22;17010;51.306;3.150;2023-05-17T09:19:47;17.60;99.90
30206;DHT22;17010;51.306;3.150;2023-05-17T09:22:18;17.60;99.90
30206;DHT22;17010;51.306;3.150;2023-05-17T09:24:45;17.70;99.90
30206;DHT22;17010;51.306;3.150;2023-05-17T09:27:15;17.60;99.90
30206;DHT22;17010;51.306;3.150;2023-05-17T09:29:43;17.40;99.90
30206;DHT22;17010;51.306;3.150;2023-05-17T09:32:17;17.20;99.90
30206;DHT22;17010;51.306;3.150;2023-05-17T09:34:46;17.10;99.90
30206;DHT22;17010;51.306;3.150;2023-05-17T09:37:16;17.30;99.90
30206;DHT22;17010;51.306;3.150;2023-05-17T09:39:46;17.10;99.90
30206;DHT22;17010;51.306;3.150;2023-05-17T09:42:14;17.30;99.90
30206;DHT22;17010;51.306;3.150;2023-05-17T09:45:03;17.60;99.90
30206;DHT22;17010;51.306;3.150;2023-05-17T09:47:30;18.00;99.90
30206;DHT22;17010;51.306;3.150;2023-05-17T09:50:02;17.70;99.90
30206;DHT22;17010;51.306;3.150;2023-05-17T09:52:31;17.10;99.90
30206;DHT22;17010;51.306;3.150;2023-05-17T09:55:02;17.40;99.90
30206;DHT22;17010;51.306;3.150;2023-05-17T09:57:36;17.50;99.90
30206;DHT22;17010;51.306;3.150;2023-05-17T10:00:03;17.50;99.90
30206;DHT22;17010;51.306;3.150;2023-05-17T10:02:34;17.60;99.90
30206;DHT22;17010;51.306;3.150;2023-05-17T10:05:04;17.60;99.90
30206;DHT22;17010;51.306;3.150;2023-05-17T10:07:30;17.40;99.90
30206;DHT22;17010;51.306;3.150;2023-05-17T10:09:57;17.20;99.90
30206;DHT22;17010;51.306;3.150;2023-05-17T10:12:26;17.30;99.90
30206;DHT22;17010;51.306;3.150;2023-05-17T10:14:56;17.50;99.90
30206;DHT22;17010;51.306;3.150;2023-05-17T10:17:26;17.60;99.90
30206;DHT22;17010;51.306;3.150;2023-05-17T10:19:56;17.50;99.90
30206;DHT22;17010;51.306;3.150;2023-05-17T10:22:23;17.70;99.90
30206;DHT22;17010;51.306;3.150;2023-05-17T10:24:50;18.10;99.90
30206;DHT22;17010;51.306;3.150;2023-05-17T10:27:16;17.80;99.90
30206;DHT22;17010;51.306;3.150;2023-05-17T10:29:47;17.80;99.90
30206;DHT22;17010;51.306;3.150;2023-05-17T10:32:13;18.00;99.90
30206;DHT22;17010;51.306;3.150;2023-05-17T10:34:42;17.60;99.90
30206;DHT22;17010;51.306;3.150;2023-05-17T10:37:08;17.90;99.90
30206;DHT22;17010;51.306;3.150;2023-05-17T10:39:34;17.90;99.90
30206;DHT22;17010;51.306;3.150;2023-05-17T10:42:05;17.80;99.90
30206;DHT22;17010;51.306;3.150;2023-05-17T10:44:35;18.20;99.90
30206;DHT22;17010;51.306;3.150;2023-05-17T10:47:03;17.80;99.90
30206;DHT22;17010;51.306;3.150;2023-05-17T10:49:32;18.30;99.90
30206;DHT22;17010;51.306;3.150;2023-05-17T10:52:15;18.40;99.90
30206;DHT22;17010;51.306;3.150;2023-05-17T10:54:48;18.70;99.90
30206;DHT22;17010;51.306;3.150;2023-05-17T10:57:20;18.80;99.90
30206;DHT22;17010;51.306;3.150;2023-05-17T11:00:02;18.20;99.90
30206;DHT22;17010;51.306;3.150;2023-05-17T11:02:33;18.00;99.90
30206;DHT22;17010;51.306;3.150;2023-05-17T11:05:00;18.40;99.90
30206;DHT22;17010;51.306;3.150;2023-05-17T11:07:28;18.10;99.90
30206;DHT22;17010;51.306;3.150;2023-05-17T11:12:46;17.40;99.90
30206;DHT22;17010;51.306;3.150;2023-05-17T11:15:23;17.30;99.90
30206;DHT22;17010;51.306;3.150;2023-05-17T11:17:55;17.10;99.90
30206;DHT22;17010;51.306;3.150;2023-05-17T11:20:31;17.10;99.90
30206;DHT22;17010;51.306;3.150;2023-05-17T11:23:06;17.40;99.90
30206;DHT22;17010;51.306;3.150;2023-05-17T11:25:34;17.80;99.90
30206;DHT22;17010;51.306;3.150;2023-05-17T11:28:09;17.70;99.90
30206;DHT22;17010;51.306;3.150;2023-05-17T11:30:43;17.70;99.90
30206;DHT22;17010;51.306;3.150;2023-05-17T11:33:16;17.30;99.90
30206;DHT22;17010;51.306;3.150;2023-05-17T11:35:43;17.10;99.90
30206;DHT22;17010;51.306;3.150;2023-05-17T11:38:14;17.10;99.90
30206;DHT22;17010;51.306;3.150;2023-05-17T11:40:42;16.90;99.90
30206;DHT22;17010;51.306;3.150;2023-05-17T11:43:12;16.90;99.90
30206;DHT22;17010;51.306;3.150;2023-05-17T11:45:51;16.80;99.90
30206;DHT22;17010;51.306;3.150;2023-05-17T11:48:21;17.20;99.90
30206;DHT22;17010;51.306;3.150;2023-05-17T11:50:53;16.70;99.90
30206;DHT22;17010;51.306;3.150;2023-05-17T11:53:24;16.70;99.90
30206;DHT22;17010;51.306;3.150;2023-05-17T11:55:51;16.60;99.90
30206;DHT22;17010;51.306;3.150;2023-05-17T11:58:50;16.50;99.90
30206;DHT22;17010;51.306;3.150;2023-05-17T12:01:18;16.60;99.90
30206;DHT22;17010;51.306;3.150;2023-05-17T12:03:46;16.80;99.90
30206;DHT22;17010;51.306;3.150;2023-05-17T12:06:21;17.10;99.90
30206;DHT22;17010;51.306;3.150;2023-05-17T12:08:50;17.10;99.90
30206;DHT22;17010;51.306;3.150;2023-05-17T12:11:17;17.00;99.90
30206;DHT22;17010;51.306;3.150;2023-05-17T12:13:44;17.10;99.90
30206;DHT22;17010;51.306;3.150;2023-05-17T12:16:12;17.00;99.90
30206;DHT22;17010;51.306;3.150;2023-05-17T12:18:42;16.60;99.90
30206;DHT22;17010;51.306;3.150;2023-05-17T12:21:11;16.40;99.90
30206;DHT22;17010;51.306;3.150;2023-05-17T12:23:41;16.50;99.90
30206;DHT22;17010;51.306;3.150;2023-05-17T12:26:22;16.10;99.90
30206;DHT22;17010;51.306;3.150;2023-05-17T12:28:53;15.80;99.90
30206;DHT22;17010;51.306;3.150;2023-05-17T12:31:37;15.70;99.90
30206;DHT22;17010;51.306;3.150;2023-05-17T12:34:04;15.70;99.90
30206;DHT22;17010;51.306;3.150;2023-05-17T12:36:31;15.90;99.90
30206;DHT22;17010;51.306;3.150;2023-05-17T12:39:02;15.80;99.90
30206;DHT22;17010;51.306;3.150;2023-05-17T12:41:33;15.60;99.90
30206;DHT22;17010;51.306;3.150;2023-05-17T12:43:59;15.50;99.90
30206;DHT22;17010;51.306;3.150;2023-05-17T12:46:26;15.80;99.90
30206;DHT22;17010;51.306;3.150;2023-05-17T12:48:53;16.00;99.90
30206;DHT22;17010;51.306;3.150;2023-05-17T12:51:22;16.10;99.90
30206;DHT22;17010;51.306;3.150;2023-05-17T12:53:56;16.00;99.90
30206;DHT22;17010;51.306;3.150;2023-05-17T12:56:28;15.60;99.90
30206;DHT22;17010;51.306;3.150;2023-05-17T13:01:43;15.70;99.90
30206;DHT22;17010;51.306;3.150;2023-05-17T13:04:10;15.60;99.90
30206;DHT22;17010;51.306;3.150;2023-05-17T13:09:14;15.90;99.90
30206;DHT22;17010;51.306;3.150;2023-05-17T13:11:41;15.70;99.90
30206;DHT22;17010;51.306;3.150;2023-05-17T13:14:07;15.40;99.90
30206;DHT22;17010;51.306;3.150;2023-05-17T13:16:37;15.50;99.90
30206;DHT22;17010;51.306;3.150;2023-05-17T13:19:13;15.50;99.90
30206;DHT22;17010;51.306;3.150;2023-05-17T13:21:39;15.50;99.90
30206;DHT22;17010;51.306;3.150;2023-05-17T13:24:08;15.30;99.90
30206;DHT22;17010;51.306;3.150;2023-05-17T13:26:36;15.30;99.90
30206;DHT22;17010;51.306;3.150;2023-05-17T13:29:02;15.30;99.90
30206;DHT22;17010;51.306;3.150;2023-05-17T13:31:30;15.40;99.90
30206;DHT22;17010;51.306;3.150;2023-05-17T13:34:15;15.30;99.90
30206;DHT22;17010;51.306;3.150;2023-05-17T13:36:44;15.20;99.90
30206;DHT22;17010;51.306;3.150;2023-05-17T13:39:12;15.10;99.90
30206;DHT22;17010;51.306;3.150;2023-05-17T13:41:41;14.90;99.90
30206;DHT22;17010;51.306;3.150;2023-05-17T13:44:20;14.90;99.90
30206;DHT22;17010;51.306;3.150;2023-05-17T13:47:06;14.90;99.90
30206;DHT22;17010;51.306;3.150;2023-05-17T13:49:33;15.00;99.90
30206;DHT22;17010;51.306;3.150;2023-05-17T13:52:00;15.10;99.90
30206;DHT22;17010;51.306;3.150;2023-05-17T13:54:27;15.00;99.90
30206;DHT22;17010;51.306;3.150;2023-05-17T13:56:53;14.90;99.90
30206;DHT22;17010;51.306;3.150;2023-05-17T13:59:23;14.90;99.90
30206;DHT22;17010;51.306;3.150;2023-05-17T14:01:49;14.60;99.90
30206;DHT22;17010;51.306;3.150;2023-05-17T14:04:16;14.60;99.90
30206;DHT22;17010;51.306;3.150;2023-05-17T14:06:47;14.60;99.90
30206;DHT22;17010;51.306;3.150;2023-05-17T14:09:14;14.40;99.90
30206;DHT22;17010;51.306;3.150;2023-05-17T14:11:40;14.20;99.90
30206;DHT22;17010;51.306;3.150;2023-05-17T14:14:07;14.20;99.90
30206;DHT22;17010;51.306;3.150;2023-05-17T14:16:35;14.20;99.90
30206;DHT22;17010;51.306;3.150;2023-05-17T14:19:02;14.00;99.90
30206;DHT22;17010;51.306;3.150;2023-05-17T14:21:30;13.90;99.90
30206;DHT22;17010;51.306;3.150;2023-05-17T14:23:56;14.00;99.90
30206;DHT22;17010;51.306;3.150;2023-05-17T14:26:23;13.90;99.90
30206;DHT22;17010;51.306;3.150;2023-05-17T14:28:50;13.80;99.90
30206;DHT22;17010;51.306;3.150;2023-05-17T14:31:17;13.80;99.90
30206;DHT22;17010;51.306;3.150;2023-05-17T14:33:44;13.80;99.90
30206;DHT22;17010;51.306;3.150;2023-05-17T14:36:11;13.90;99.90
30206;DHT22;17010;51.306;3.150;2023-05-17T14:38:37;13.80;99.90
30206;DHT22;17010;51.306;3.150;2023-05-17T14:41:06;13.60;99.90
30206;DHT22;17010;51.306;3.150;2023-05-17T14:43:33;13.70;99.90
30206;DHT22;17010;51.306;3.150;2023-05-17T14:45:59;13.60;99.90
30206;DHT22;17010;51.306;3.150;2023-05-17T14:48:26;13.60;99.90
30206;DHT22;17010;51.306;3.150;2023-05-17T14:50:52;13.50;99.90
30206;DHT22;17010;51.306;3.150;2023-05-17T14:53:18;13.40;99.90
30206;DHT22;17010;51.306;3.150;2023-05-17T14:55:45;13.30;99.90
30206;DHT22;17010;51.306;3.150;2023-05-17T14:58:13;13.30;99.90
30206;DHT22;17010;51.306;3.150;2023-05-17T15:00:39;13.30;99.90
30206;DHT22;17010;51.306;3.150;2023-05-17T15:03:09;13.30;99.90
30206;DHT22;17010;51.306;3.150;2023-05-17T15:05:36;13.40;99.90
30206;DHT22;17010;51.306;3.150;2023-05-17T15:08:05;13.40;99.90
30206;DHT22;17010;51.306;3.150;2023-05-17T15:10:31;13.60;99.90
30206;DHT22;17010;51.306;3.150;2023-05-17T15:12:58;13.50;99.90
30206;DHT22;17010;51.306;3.150;2023-05-17T15:15:27;13.40;99.90
30206;DHT22;17010;51.306;3.150;2023-05-17T15:17:53;13.40;99.90
30206;DHT22;17010;51.306;3.150;2023-05-17T15:20:21;13.40;99.90
30206;DHT22;17010;51.306;3.150;2023-05-17T15:22:47;13.40;99.90
30206;DHT22;17010;51.306;3.150;2023-05-17T15:25:15;13.50;99.90
30206;DHT22;17010;51.306;3.150;2023-05-17T15:27:42;13.30;99.90
30206;DHT22;17010;51.306;3.150;2023-05-17T15:30:08;13.30;99.90
30206;DHT22;17010;51.306;3.150;2023-05-17T15:32:35;13.30;99.90
30206;DHT22;17010;51.306;3.150;2023-05-17T15:35:02;13.20;99.90
30206;DHT22;17010;51.306;3.150;2023-05-17T15:37:31;13.10;99.90
30206;DHT22;17010;51.306;3.150;2023-05-17T15:40:09;13.00;99.90
30206;DHT22;17010;51.306;3.150;2023-05-17T15:42:36;13.00;99.90
30206;DHT22;17010;51.306;3.150;2023-05-17T15:45:05;13.00;99.90
30206;DHT22;17010;51.306;3.150;2023-05-17T15:47:31;13.10;99.90
30206;DHT22;17010;51.306;3.150;2023-05-17T15:50:00;13.10;99.90
30206;DHT22;17010;51.306;3.150;2023-05-17T15:52:26;13.00;99.90
30206;DHT22;17010;51.306;3.150;2023-05-17T15:54:53;12.90;99.90
30206;DHT22;17010;51.306;3.150;2023-05-17T15:57:20;13.00;99.90
30206;DHT22;17010;51.306;3.150;2023-05-17T15:59:47;12.90;99.90
30206;DHT22;17010;51.306;3.150;2023-05-17T16:02:18;12.90;99.90
30206;DHT22;17010;51.306;3.150;2023-05-17T16:04:44;12.90;99.90
30206;DHT22;17010;51.306;3.150;2023-05-17T16:07:14;12.90;99.90
30206;DHT22;17010;51.306;3.150;2023-05-17T16:09:40;12.70;99.90
30206;DHT22;17010;51.306;3.150;2023-05-17T16:12:08;12.80;99.90
30206;DHT22;17010;51.306;3.150;2023-05-17T16:14:35;12.70;99.90
30206;DHT22;17010;51.306;3.150;2023-05-17T16:17:02;12.70;99.90
30206;DHT22;17010;51.306;3.150;2023-05-17T16:19:30;12.70;99.90
30206;DHT22;17010;51.306;3.150;2023-05-17T16:21:58;12.80;99.90
30206;DHT22;17010;51.306;3.150;2023-05-17T16:24:25;12.70;99.90
30206;DHT22;17010;51.306;3.150;2023-05-17T16:26:51;12.80;99.90
30206;DHT22;17010;51.306;3.150;2023-05-17T16:29:18;12.80;99.90
30206;DHT22;17010;51.306;3.150;2023-05-17T16:31:46;12.80;99.90
30206;DHT22;17010;51.306;3.150;2023-05-17T16:34:13;12.70;99.90
30206;DHT22;17010;51.306;3.150;2023-05-17T16:36:43;12.60;99.90
30206;DHT22;17010;51.306;3.150;2023-05-17T16:39:14;12.60;99.90
30206;DHT22;17010;51.306;3.150;2023-05-17T16:41:40;12.60;99.90
30206;DHT22;17010;51.306;3.150;2023-05-17T16:44:06;12.60;99.90
30206;DHT22;17010;51.306;3.150;2023-05-17T16:46:33;12.60;99.90
30206;DHT22;17010;51.306;3.150;2023-05-17T16:49:00;12.50;99.90
30206;DHT22;17010;51.306;3.150;2023-05-17T16:51:29;12.40;99.90
30206;DHT22;17010;51.306;3.150;2023-05-17T16:53:56;12.60;99.90
30206;DHT22;17010;51.306;3.150;2023-05-17T16:56:22;12.60;99.90
30206;DHT22;17010;51.306;3.150;2023-05-17T16:58:49;12.60;99.90
30206;DHT22;17010;51.306;3.150;2023-05-17T17:01:17;12.60;99.90
30206;DHT22;17010;51.306;3.150;2023-05-17T17:03:44;12.60;99.90
30206;DHT22;17010;51.306;3.150;2023-05-17T17:06:11;12.50;99.90